createdAt,value
2023-05-02T00:00:09.133Z,145282.44
2023-05-02T00:02:38.773Z,146280.34
2023-05-02T00:05:07.652Z,146868.13
2023-05-02T00:07:36.045Z,147482.25
2023-05-02T00:10:06.224Z,148213.13
2023-05-02T00:12:38.033Z,149006.31
2023-05-02T00:15:06.977Z,150417.06
2023-05-02T00:17:35.023Z,151338.84
2023-05-02T00:20:05.020Z,151503.78
2023-05-02T00:22:33.306Z,151511.56
2023-05-02T00:25:01.282Z,151510.25
2023-05-02T00:27:32.003Z,151483.03
2023-05-02T00:30:01.011Z,151462.34
2023-05-02T00:32:30.221Z,151415.72
2023-05-02T00:34:59.028Z,151400.22
2023-05-02T00:37:40.968Z,151388.56
2023-05-02T00:40:22.324Z,151371.72
2023-05-02T00:42:55.628Z,151363.94
2023-05-02T00:45:23.696Z,151353.63
2023-05-02T00:48:05.512Z,151322.53
2023-05-02T00:50:44.521Z,151358.75
2023-05-02T00:53:12.710Z,151338.06
2023-05-02T00:55:41.985Z,151343.25
2023-05-02T00:58:13.952Z,151338.06
2023-05-02T01:00:57.820Z,151344.53
2023-05-02T01:03:37.853Z,151321.22
2023-05-02T01:06:25.428Z,151322.53
2023-05-02T01:09:01.953Z,151316.06
2023-05-02T01:11:40.874Z,151314.75
2023-05-02T01:14:13.328Z,151321.22
2023-05-02T01:16:44.789Z,151308.28
2023-05-02T01:19:26.256Z,151327.72
2023-05-02T01:21:56.315Z,151319.94
2023-05-02T01:24:29.792Z,151313.47
2023-05-02T01:27:08.697Z,151275.94
2023-05-02T01:29:47.032Z,151301.84
2023-05-02T01:32:17.555Z,151281.13
2023-05-02T01:34:48.939Z,151301.84
2023-05-02T01:37:19.197Z,151296.66
2023-05-02T01:40:13.098Z,151294.09
2023-05-02T01:42:42.626Z,151288.91
2023-05-02T01:45:16.701Z,151283.72
2023-05-02T01:47:46.183Z,151321.22
2023-05-02T01:50:30.884Z,151340.66
2023-05-02T01:53:11.603Z,151291.50
2023-05-02T01:56:07.682Z,151270.75
2023-05-02T01:58:50.352Z,151286.31
2023-05-02T02:01:22.436Z,151273.34
2023-05-02T02:04:03.136Z,151259.13
2023-05-02T02:10:41.117Z,151234.56
2023-05-02T02:13:33.071Z,151191.88
2023-05-02T02:16:05.164Z,151176.34
2023-05-02T02:19:04.725Z,151195.72
2023-05-02T02:21:39.102Z,151160.78
2023-05-02T02:24:47.957Z,151101.25
2023-05-02T02:27:16.357Z,151081.84
2023-05-02T02:32:46.227Z,151092.19
2023-05-02T02:35:15.929Z,151074.13
2023-05-02T02:37:51.172Z,151058.59
2023-05-02T02:40:24.520Z,151070.22
2023-05-02T02:43:01.591Z,151043.06
2023-05-02T02:45:36.745Z,151066.34
2023-05-02T02:48:18.267Z,151019.81
2023-05-02T02:50:58.859Z,151021.09
2023-05-02T02:53:35.328Z,151012.03
2023-05-02T02:56:08.105Z,151000.41
2023-05-02T02:58:56.479Z,150986.16
2023-05-02T03:01:28.175Z,150970.69
2023-05-02T03:03:58.558Z,150944.81
2023-05-02T03:06:28.389Z,150920.22
2023-05-02T03:08:56.524Z,150913.81
2023-05-02T03:11:26.363Z,150916.34
2023-05-02T03:13:55.631Z,150908.63
2023-05-02T03:16:34.038Z,150921.53
2023-05-02T03:19:02.992Z,150872.41
2023-05-02T03:21:32.442Z,150871.13
2023-05-02T03:24:01.130Z,150868.53
2023-05-02T03:26:29.478Z,150844.00
2023-05-02T03:28:58.134Z,150851.78
2023-05-02T03:31:26.840Z,150841.44
2023-05-02T03:33:55.033Z,150844.00
2023-05-02T03:36:22.996Z,150838.84
2023-05-02T03:38:52.492Z,150825.91
2023-05-02T03:41:21.246Z,150805.25
2023-05-02T03:43:49.320Z,150797.50
2023-05-02T03:46:17.320Z,150806.50
2023-05-02T03:48:46.535Z,150753.53
2023-05-02T03:51:14.540Z,150780.69
2023-05-02T03:53:42.584Z,150775.53
2023-05-02T03:56:12.117Z,150794.91
2023-05-02T03:58:40.179Z,150792.34
2023-05-02T04:01:15.518Z,150792.34
2023-05-02T04:03:43.586Z,150816.84
2023-05-02T04:06:13.203Z,150818.16
2023-05-02T04:08:41.485Z,150794.91
2023-05-02T04:11:15.324Z,150805.25
2023-05-02T04:13:43.335Z,150820.72
2023-05-02T04:16:11.354Z,150805.25
2023-05-02T04:18:39.163Z,150806.50
2023-05-02T04:21:09.320Z,150792.34
2023-05-02T04:23:37.799Z,150794.91
2023-05-02T04:26:06.237Z,150778.09
2023-05-02T04:28:36.564Z,150772.94
2023-05-02T04:31:05.267Z,150784.56
2023-05-02T04:33:33.156Z,150788.47
2023-05-02T04:36:01.341Z,150793.63
2023-05-02T04:38:29.420Z,150778.09
2023-05-02T04:40:57.906Z,150809.09
2023-05-02T04:43:26.073Z,150810.38
2023-05-02T04:45:55.497Z,150806.50
2023-05-02T04:48:23.593Z,150797.50
2023-05-02T04:50:53.590Z,150807.81
2023-05-02T04:53:23.554Z,150807.81
2023-05-02T04:55:52.242Z,150810.38
2023-05-02T04:58:21.328Z,150818.16
2023-05-02T05:00:49.355Z,150822.03
2023-05-02T05:03:19.768Z,150812.97
2023-05-02T05:05:48.021Z,150809.09
2023-05-02T05:08:18.105Z,150840.13
2023-05-02T05:10:52.234Z,150849.19
2023-05-02T05:13:25.862Z,150858.25
2023-05-02T05:16:05.542Z,150841.44
2023-05-02T05:18:40.432Z,150819.44
2023-05-02T05:21:08.716Z,150875.00
2023-05-02T05:23:53.163Z,150846.59
2023-05-02T05:26:22.254Z,150833.66
2023-05-02T05:28:50.691Z,150831.09
2023-05-02T05:31:19.628Z,150282.38
2023-05-02T05:33:48.963Z,149448.44
2023-05-02T05:36:17.251Z,149213.94
2023-05-02T05:38:45.349Z,148212.59
2023-05-02T05:41:13.706Z,147191.09
2023-05-02T05:43:41.696Z,146949.53
2023-05-02T05:46:09.711Z,146435.75
2023-05-02T05:48:38.932Z,146343.03
2023-05-02T05:51:09.986Z,146097.84
2023-05-02T05:53:40.779Z,145737.09
2023-05-02T05:56:14.584Z,145074.50
2023-05-02T05:58:44.250Z,144391.19
2023-05-02T06:01:12.885Z,142944.56
2023-05-02T06:03:42.692Z,142168.06
2023-05-02T06:06:13.185Z,141367.50
2023-05-02T06:08:41.427Z,139211.66
2023-05-02T06:11:12.729Z,137363.38
2023-05-02T06:13:40.718Z,136936.50
2023-05-02T06:16:09.235Z,131186.81
2023-05-02T06:18:38.179Z,99679.28
2023-05-02T06:21:06.900Z,109541.88
2023-05-02T06:23:40.218Z,109994.25
2023-05-02T06:26:10.153Z,108181.69
2023-05-02T06:28:41.103Z,106541.53
2023-05-02T06:31:10.124Z,104051.88
2023-05-02T06:33:42.618Z,103377.47
2023-05-02T06:36:10.959Z,102608.50
2023-05-02T06:38:42.930Z,101943.56
2023-05-02T06:41:17.842Z,101030.63
2023-05-02T06:43:46.331Z,99476.00
2023-05-02T06:46:20.913Z,97418.81
2023-05-02T06:48:53.105Z,95934.63
2023-05-02T06:51:22.431Z,94056.84
2023-05-02T06:53:52.038Z,92162.59
2023-05-02T06:56:20.260Z,89714.38
2023-05-02T06:58:48.503Z,86148.97
2023-05-02T07:01:16.502Z,85608.78
2023-05-02T07:03:45.513Z,81913.50
2023-05-02T07:06:13.641Z,77978.00
2023-05-02T07:08:41.797Z,75026.75
2023-05-02T07:11:11.422Z,69980.50
2023-05-02T07:13:39.453Z,71945.50
2023-05-02T07:16:08.740Z,66660.81
2023-05-02T07:18:36.826Z,62385.00
2023-05-02T07:21:05.018Z,57790.56
2023-05-02T07:23:33.178Z,53594.94
2023-05-02T07:26:01.398Z,50824.50
2023-05-02T07:28:30.990Z,47262.28
2023-05-02T07:30:59.332Z,42594.78
2023-05-02T07:33:27.301Z,38547.50
2023-05-02T07:35:57.201Z,35854.59
2023-05-02T07:38:25.406Z,35243.69
2023-05-02T07:40:54.630Z,32474.91
2023-05-02T07:43:22.894Z,32359.13
2023-05-02T07:45:52.588Z,31588.47
2023-05-02T07:48:20.634Z,25240.25
2023-05-02T07:50:48.903Z,12572.69
2023-05-02T07:53:19.303Z,-13158.53
2023-05-02T07:55:47.791Z,-20068.84
2023-05-02T07:58:16.746Z,-15498.81
2023-05-02T08:00:44.749Z,113299.91
2023-05-02T08:03:14.143Z,151208.66
2023-05-02T08:05:43.247Z,151336.78
2023-05-02T08:08:11.272Z,151296.66
2023-05-02T08:10:39.366Z,151366.53
2023-05-02T08:13:07.517Z,131091.06
2023-05-02T08:15:35.875Z,146649.75
2023-05-02T08:18:07.247Z,109049.69
2023-05-02T08:20:37.189Z,151357.50
2023-05-02T08:23:11.550Z,151426.06
2023-05-02T08:25:39.421Z,151222.91
2023-05-02T08:28:08.335Z,151389.84
2023-05-02T08:30:37.672Z,151449.41
2023-05-02T08:33:05.793Z,149956.44
2023-05-02T08:35:33.906Z,151345.84
2023-05-02T08:38:03.809Z,151335.47
2023-05-02T08:40:42.451Z,151384.66
2023-05-02T08:43:12.423Z,151357.50
2023-05-02T08:45:42.502Z,151397.63
2023-05-02T08:48:11.813Z,151382.06
2023-05-02T08:50:41.881Z,151291.50
2023-05-02T08:53:15.500Z,151455.88
2023-05-02T08:55:44.074Z,151407.97
2023-05-02T08:58:18.820Z,151576.31
2023-05-02T09:00:51.097Z,151657.97
2023-05-02T09:03:33.565Z,151529.66
2023-05-02T09:06:14.247Z,151641.09
2023-05-02T09:08:44.826Z,151713.69
2023-05-02T09:11:14.199Z,151628.13
2023-05-02T09:13:43.981Z,151677.41
2023-05-02T09:16:13.544Z,151734.44
2023-05-02T09:18:43.639Z,151613.88
2023-05-02T09:21:14.406Z,151708.50
2023-05-02T09:23:45.640Z,151599.63
2023-05-02T09:26:15.902Z,151749.94
2023-05-02T09:28:45.499Z,151686.50
2023-05-02T09:31:43.732Z,151463.66
2023-05-02T09:34:16.839Z,151483.03
2023-05-02T09:36:46.643Z,151490.81
2023-05-02T09:39:17.493Z,151613.88
2023-05-02T09:41:47.934Z,151677.41
2023-05-02T09:44:18.464Z,151797.94
2023-05-02T09:46:48.255Z,151699.41
2023-05-02T09:49:46.886Z,151742.22
2023-05-02T09:52:18.525Z,151877.00
2023-05-02T10:03:56.046Z,151847.19
2023-05-02T10:07:15.745Z,151755.13
2023-05-02T10:09:46.987Z,151886.06
2023-05-02T10:12:27.001Z,151861.41
2023-05-02T10:15:07.654Z,151853.69
2023-05-02T10:17:43.162Z,151936.63
2023-05-02T10:20:16.581Z,152017.06
2023-05-02T10:22:46.425Z,152037.81
2023-05-02T10:25:16.439Z,152228.63
2023-05-02T10:27:47.681Z,152209.13
2023-05-02T10:30:16.911Z,152511.75
2023-05-02T10:32:47.744Z,152137.75
2023-05-02T10:35:19.277Z,151882.19
2023-05-02T10:37:50.212Z,152078.06
2023-05-02T10:40:20.440Z,152239.00
2023-05-02T10:42:52.405Z,152181.91
2023-05-02T10:45:38.757Z,152325.97
2023-05-02T10:48:20.527Z,152141.63
2023-05-02T10:50:51.417Z,152120.91
2023-05-02T10:53:27.080Z,152149.44
2023-05-02T10:56:17.767Z,152004.09
2023-05-02T10:58:49.104Z,151996.31
2023-05-02T11:01:40.399Z,151927.56
2023-05-02T11:04:16.449Z,151889.97
2023-05-02T11:07:19.218Z,151810.88
2023-05-02T11:09:48.478Z,151997.59
2023-05-02T11:12:49.100Z,151975.53
2023-05-02T11:15:42.137Z,152229.91
2023-05-02T11:18:12.582Z,152513.03
2023-05-02T11:20:42.128Z,152398.75
2023-05-02T11:23:26.130Z,152140.34
2023-05-02T11:25:56.824Z,151998.91
2023-05-02T11:28:48.729Z,151897.75
2023-05-02T11:32:08.507Z,151897.75
2023-05-02T11:34:46.270Z,151970.34
2023-05-02T11:37:15.712Z,151927.56
2023-05-02T11:39:44.393Z,151896.47
2023-05-02T11:42:12.437Z,151892.56
2023-05-02T11:45:04.226Z,151887.38
2023-05-02T11:47:34.439Z,151781.06
2023-05-02T11:50:06.384Z,151791.47
2023-05-02T11:52:39.920Z,151705.91
2023-05-02T11:55:10.382Z,151769.41
2023-05-02T11:57:40.623Z,151879.59
2023-05-02T12:00:13.056Z,151945.72
2023-05-02T12:02:44.129Z,151996.31
2023-05-02T12:05:14.202Z,151993.72
2023-05-02T12:07:46.018Z,152255.84
2023-05-02T12:10:15.024Z,152241.59
2023-05-02T12:12:53.018Z,151998.91
2023-05-02T12:15:22.401Z,152074.19
2023-05-02T12:17:52.309Z,152071.59
2023-05-02T12:20:20.663Z,152075.50
2023-05-02T12:22:48.658Z,151901.66
2023-05-02T12:25:19.145Z,152023.53
2023-05-02T12:28:00.469Z,152214.31
2023-05-02T12:30:31.682Z,152170.22
2023-05-02T12:33:02.194Z,152287.03
2023-05-02T12:35:34.020Z,152463.69
2023-05-02T12:38:13.631Z,152187.09
2023-05-02T12:40:51.158Z,152250.66
2023-05-02T12:43:19.773Z,152074.19
2023-05-02T12:45:54.310Z,152088.44
2023-05-02T12:48:24.515Z,152144.22
2023-05-02T12:50:54.522Z,152114.41
2023-05-02T12:53:43.723Z,151978.13
2023-05-02T12:56:13.531Z,151809.56
2023-05-02T12:58:43.828Z,151839.41
2023-05-02T13:01:13.828Z,151971.63
2023-05-02T13:03:43.569Z,151996.31
2023-05-02T13:06:12.251Z,152063.81
2023-05-02T13:08:40.773Z,152294.81
2023-05-02T13:11:09.930Z,152366.19
2023-05-02T13:13:37.897Z,152307.78
2023-05-02T13:16:06.343Z,152455.88
2023-05-02T13:18:36.370Z,152602.69
2023-05-02T13:21:05.009Z,152376.59
2023-05-02T13:23:33.029Z,152340.25
2023-05-02T13:26:03.089Z,152527.28
2023-05-02T13:28:33.447Z,152394.84
2023-05-02T13:31:01.606Z,152393.50
2023-05-02T13:33:29.618Z,152255.84
2023-05-02T13:35:59.176Z,152206.53
2023-05-02T13:38:27.161Z,152085.84
2023-05-02T13:40:55.268Z,152132.53
2023-05-02T13:43:24.364Z,151993.72
2023-05-02T13:45:52.849Z,152393.50
2023-05-02T13:48:20.952Z,152374.59
2023-05-02T13:50:49.140Z,152341.56
2023-05-02T13:53:19.037Z,152305.16
2023-05-02T13:55:47.649Z,152084.53
2023-05-02T13:58:16.618Z,151834.22
2023-05-02T14:00:44.761Z,151848.50
2023-05-02T14:03:13.849Z,151847.19
2023-05-02T14:05:43.760Z,151851.09
2023-05-02T14:08:11.997Z,151861.41
2023-05-02T14:10:41.756Z,151873.09
2023-05-02T14:13:10.232Z,151857.53
2023-05-02T14:15:39.008Z,152174.09
2023-05-02T14:18:11.231Z,152472.75
2023-05-02T14:20:39.389Z,152249.34
2023-05-02T14:23:16.733Z,152297.44
2023-05-02T14:25:52.044Z,152345.44
2023-05-02T14:28:23.706Z,152558.50
2023-05-02T14:30:52.387Z,152744.38
2023-05-02T14:33:22.785Z,152668.97
2023-05-02T14:35:57.044Z,152367.50
2023-05-02T14:38:27.028Z,152297.44
2023-05-02T14:40:58.250Z,152132.53
2023-05-02T14:43:27.550Z,152088.44
2023-05-02T14:45:57.528Z,152083.25
2023-05-02T14:48:26.397Z,152110.50
2023-05-02T14:50:54.846Z,152080.66
2023-05-02T14:53:22.903Z,152100.13
2023-05-02T14:55:52.957Z,152190.94
2023-05-02T14:58:22.372Z,152390.91
2023-05-02T15:00:50.717Z,152320.75
2023-05-02T15:03:19.126Z,152418.19
2023-05-02T15:05:47.373Z,152239.00
2023-05-02T15:08:15.367Z,152157.22
2023-05-02T15:10:43.454Z,151993.72
2023-05-02T15:13:11.503Z,151831.63
2023-05-02T15:15:43.583Z,151896.47
2023-05-02T15:18:11.581Z,151908.13
2023-05-02T15:20:40.315Z,151905.53
2023-05-02T15:23:09.527Z,151922.38
2023-05-02T15:25:37.527Z,151783.69
2023-05-02T15:28:08.117Z,151874.41
2023-05-02T15:30:36.508Z,151882.19
2023-05-02T15:33:05.871Z,151970.34
2023-05-02T15:35:34.922Z,152009.28
2023-05-02T15:38:03.210Z,152027.41
2023-05-02T15:40:31.269Z,151952.22
2023-05-02T15:42:59.501Z,151983.31
2023-05-02T15:45:27.609Z,151834.22
2023-05-02T15:47:55.831Z,151702.00
2023-05-02T15:50:25.650Z,151668.34
2023-05-02T15:52:54.862Z,151626.84
2023-05-02T15:55:22.756Z,151628.13
2023-05-02T15:57:53.101Z,151651.47
2023-05-02T16:00:21.614Z,151537.44
2023-05-02T16:02:49.705Z,151591.84
2023-05-02T16:05:18.085Z,151559.47
2023-05-02T16:07:47.424Z,151556.88
2023-05-02T16:10:16.719Z,151556.88
2023-05-02T16:12:45.645Z,151635.88
2023-05-02T16:15:17.235Z,151578.88
2023-05-02T16:17:45.375Z,151651.47
2023-05-02T16:20:14.656Z,151672.22
2023-05-02T16:22:44.355Z,151656.66
2023-05-02T16:25:15.289Z,151591.84
2023-05-02T16:27:44.164Z,151576.31
2023-05-02T16:30:12.746Z,151617.75
2023-05-02T16:32:42.153Z,151683.91
2023-05-02T16:35:15.074Z,151768.09
2023-05-02T16:37:43.417Z,151765.50
2023-05-02T16:40:13.898Z,151830.31
2023-05-02T16:42:43.183Z,151787.56
2023-05-02T16:45:14.850Z,151806.97
2023-05-02T16:47:44.332Z,151756.44
2023-05-02T16:50:12.678Z,151801.78
2023-05-02T16:52:40.905Z,151669.63
2023-05-02T16:55:10.254Z,151661.84
2023-05-02T16:57:40.617Z,151606.09
2023-05-02T17:00:12.446Z,151602.22
2023-05-02T17:02:41.525Z,151550.41
2023-05-02T17:05:13.074Z,151516.75
2023-05-02T17:07:41.591Z,151520.63
2023-05-02T17:10:14.010Z,151537.44
2023-05-02T17:12:46.731Z,151525.78
2023-05-02T17:15:15.127Z,151529.66
2023-05-02T17:17:43.797Z,151512.84
2023-05-02T17:20:19.918Z,151490.81
2023-05-02T17:23:06.473Z,151428.66
2023-05-02T17:25:34.720Z,151436.44
2023-05-02T17:28:12.833Z,151422.19
2023-05-02T17:30:45.279Z,151392.44
2023-05-02T17:33:27.294Z,151402.81
2023-05-02T17:35:56.454Z,151392.44
2023-05-02T17:38:24.682Z,151389.84
2023-05-02T17:40:52.758Z,151387.25
2023-05-02T17:43:25.382Z,151389.84
2023-05-02T17:45:54.468Z,151341.97
2023-05-02T17:48:22.750Z,151360.03
2023-05-02T17:50:52.162Z,151338.06
2023-05-02T17:53:20.118Z,151318.63
2023-05-02T17:55:51.681Z,151291.50
2023-05-02T17:58:19.725Z,151234.56
2023-05-02T18:00:54.241Z,151187.97
2023-05-02T18:03:22.316Z,151180.22
2023-05-02T18:05:50.462Z,151120.66
2023-05-02T18:08:18.450Z,151065.06
2023-05-02T18:10:47.795Z,151045.63
2023-05-02T18:13:16.308Z,151024.97
2023-05-02T18:15:44.419Z,151010.75
2023-05-02T18:18:13.844Z,150997.81
2023-05-02T18:20:42.358Z,150993.94
2023-05-02T18:23:10.560Z,150988.75
2023-05-02T18:25:38.653Z,150978.41
2023-05-02T18:28:07.137Z,150979.69
2023-05-02T18:30:37.871Z,150962.94
2023-05-02T18:33:10.280Z,150925.41
2023-05-02T18:35:41.707Z,150875.00
2023-05-02T18:38:35.067Z,150850.47
2023-05-02T18:41:24.711Z,150802.69
2023-05-02T18:43:54.747Z,150807.81
2023-05-02T18:46:27.277Z,150763.88
2023-05-02T18:48:55.987Z,150691.59
2023-05-02T18:51:43.342Z,150721.28
2023-05-02T18:54:11.482Z,150663.16
2023-05-02T18:56:46.925Z,150650.22
2023-05-02T18:59:28.238Z,150599.88
2023-05-02T19:02:01.234Z,150552.13
2023-05-02T19:04:32.878Z,150527.56
2023-05-02T19:07:03.380Z,150528.84
2023-05-02T19:09:31.618Z,150491.38
2023-05-02T19:12:01.257Z,150416.56
2023-05-02T19:14:29.154Z,150416.56
2023-05-02T19:16:58.142Z,75076.81
2023-05-02T19:19:32.367Z,54784.78
2023-05-02T19:22:03.185Z,60135.34
2023-05-02T19:24:32.574Z,93604.97
2023-05-02T19:27:04.130Z,115736.09
2023-05-02T19:29:33.244Z,125260.53
2023-05-02T19:32:01.905Z,120370.34
2023-05-02T19:34:30.104Z,120293.56
2023-05-02T19:36:58.073Z,119031.56
2023-05-02T19:39:28.502Z,119625.50
2023-05-02T19:41:56.594Z,123909.91
2023-05-02T19:44:24.849Z,126327.06
2023-05-02T19:46:52.973Z,122556.09
2023-05-02T19:49:21.628Z,123491.16
2023-05-02T19:51:49.470Z,123580.78
2023-05-02T19:54:17.425Z,122620.63
2023-05-02T19:56:48.946Z,123009.59
2023-05-02T19:59:17.540Z,122819.09
2023-05-02T20:01:46.759Z,123549.00
2023-05-02T20:04:15.088Z,126462.47
2023-05-02T20:06:46.421Z,128941.25
2023-05-02T20:09:17.160Z,126768.13
2023-05-02T20:11:48.505Z,119779.19
2023-05-02T20:14:18.412Z,118277.41
2023-05-02T20:16:49.986Z,118381.28
2023-05-02T20:19:24.119Z,127196.31
2023-05-02T20:21:52.524Z,128673.31
2023-05-02T20:24:22.874Z,137430.94
2023-05-02T20:26:53.002Z,137799.84
2023-05-02T20:29:25.845Z,139599.28
2023-05-02T20:31:55.163Z,149752.38
2023-05-02T20:34:27.075Z,149806.91
2023-05-02T20:36:55.629Z,149754.13
2023-05-02T20:39:25.894Z,149709.03
2023-05-02T20:41:58.329Z,149801.75
2023-05-02T20:44:27.038Z,149792.72
2023-05-02T20:46:55.097Z,149855.81
2023-05-02T20:49:23.064Z,149976.91
2023-05-02T20:51:56.057Z,150014.25
2023-05-02T20:54:24.013Z,150042.59
2023-05-02T20:57:00.058Z,150072.25
2023-05-02T20:59:29.386Z,150085.16
2023-05-02T21:01:57.495Z,150033.59
2023-05-02T21:04:25.655Z,150090.25
2023-05-02T21:06:59.854Z,150103.16
2023-05-02T21:09:38.559Z,150107.03
2023-05-02T21:12:12.802Z,150113.47
2023-05-02T21:14:43.412Z,150112.19
2023-05-02T21:17:13.602Z,150103.16
2023-05-02T21:19:44.243Z,150104.47
2023-05-02T21:22:12.217Z,150095.44
2023-05-02T21:24:40.279Z,150010.41
2023-05-02T21:27:08.471Z,150040.00
2023-05-02T21:29:36.682Z,150059.34
2023-05-02T21:32:06.835Z,150154.72
2023-05-02T21:34:36.928Z,150150.84
2023-05-02T21:37:05.186Z,150117.34
2023-05-02T21:39:36.082Z,150192.16
2023-05-02T21:42:04.872Z,150259.16
2023-05-02T21:44:32.856Z,150216.63
2023-05-02T21:47:10.291Z,150202.41
2023-05-02T21:49:38.415Z,150254.03
2023-05-02T21:52:07.715Z,150288.84
2023-05-02T21:54:35.726Z,150246.31
2023-05-02T22:00:25.695Z,150268.19
2023-05-02T22:02:55.170Z,150228.22
2023-05-02T22:05:24.529Z,150166.34
2023-05-02T22:07:53.088Z,150183.13
2023-05-02T22:10:21.412Z,150202.41
2023-05-02T22:12:49.591Z,150168.91
2023-05-02T22:15:17.703Z,150141.88
2023-05-02T22:17:46.827Z,150141.78
2023-05-02T22:20:16.387Z,149815.44
2023-05-02T22:22:47.707Z,149107.66
2023-05-02T22:25:16.735Z,148393.84
2023-05-02T22:27:47.809Z,148400.22
2023-05-02T22:30:15.869Z,147987.59
2023-05-02T22:32:45.342Z,147948.16
2023-05-02T22:35:13.330Z,148496.66
2023-05-02T22:37:42.736Z,149204.31
2023-05-02T22:40:12.684Z,149884.06
2023-05-02T22:42:40.616Z,149835.19
2023-05-02T22:45:10.193Z,149824.88
2023-05-02T22:47:38.756Z,149858.41
2023-05-02T22:50:10.111Z,149895.75
2023-05-02T22:52:39.813Z,149781.13
2023-05-02T22:55:22.010Z,149773.38
2023-05-02T22:57:49.897Z,149770.81
2023-05-02T23:00:18.328Z,149827.47
2023-05-02T23:02:46.402Z,149864.84
2023-05-02T23:05:14.985Z,149893.16
2023-05-02T23:07:43.145Z,149898.31
2023-05-02T23:10:12.734Z,149920.22
2023-05-02T23:12:41.948Z,150003.94
2023-05-02T23:15:11.126Z,150052.91
2023-05-02T23:17:41.064Z,150076.13
2023-05-02T23:20:14.615Z,150085.16
2023-05-02T23:22:46.382Z,150123.81
2023-05-02T23:25:16.640Z,150165.06
2023-05-02T23:27:45.672Z,150170.22
2023-05-02T23:30:14.017Z,150163.75
2023-05-02T23:32:42.018Z,150167.63
2023-05-02T23:35:15.603Z,150180.53
2023-05-02T23:37:51.464Z,150198.59
2023-05-02T23:40:28.384Z,150238.56
2023-05-02T23:42:56.464Z,150214.03
2023-05-02T23:45:25.439Z,150197.31
2023-05-02T23:47:53.607Z,150192.16
2023-05-02T23:50:23.271Z,150172.78
2023-05-02T23:52:52.151Z,150154.72
2023-05-02T23:55:20.318Z,150149.56
2023-05-02T23:57:49.648Z,150078.72
